Strona główna
METAR-TAF:

METAR-TAF

Lotnisko :

Gibraltar, Gibraltar

Port lotniczy Gibraltar

Szerokość geograficzna: 36-09N, Długość geograficzna: 005-21W, wysokość: 5 m

Aktualna obserwacja pogody

Raport powstał 1 godzina i 4 minut temu, godzina 02:50 UTC
Wiatr 23 kt od wschód
Temperatura 14°C
Wilgotność 88%
Ciśnienie 1020 hPa
Widzialność 10 km lub więcej

METAR: LXGB 180250Z AUTO 08023KT 9999 // NCD 14/12 Q1020

czas: 04:54 (03:54 UTC)

Prognoza

Raport powstał 14 godziny i 10 minut temu, godzina 13:44 UTC
Prognoza ważna od 17 godzina 15 UTC do 17 godzina 22 UTC
Wiatr 8 kt od wschód
Widzialność 10 km lub więcej
Mało chmury na wysokości 2000 ft
Stopniowe zmiany
od 17 godzina 20 UTC do 17 godzina 22 UTC
Wiatr 15 kt od wschód w porywach dochodzący do 25 kt

TAF: LXGB 171344Z 1715/1722 08008KT 9999 FEW020 BECMG 1720/1722 08015G25KT

Obserwacja i prognoza pogody dla ponad 4000 lotnisk (raport METAR i TAF).

Dostępne stacje oznaczono żółtymi i czerwonymi punktami na mapie.

Najedź kursorem aby zobaczyć nazwę stacji.

Kliknij aby zobaczyć obserwacje i prognozy pogody.

Aby zmienić mapę: kliknij na zielony przycisk z czarnym krzyżykiem, aby powiększyć; na zielony przycisk z myślnikiem, aby pomniejszyć; na zielone strzałki, aby przejść do map sąsiednich.


METAR-TAF: